SKU011 KORD-KSLC
Flight info
| Callsign | SKU011 |
|---|---|
| Flight time | N/A |
| Altitude | 38000 |
| Route | MYKIE MONNY JORDY ONL Q122 KURSE CKW CARTR1 |
| Aircraft | A20N/M-SDE2E3FGHIRWXY/LB1 |
Departure
| Time | 2026-04-30 13:35 |
|---|---|
| Airport | Chicago O'Hare International Airport (KORD) |
Arrival
| Time | N/A |
|---|---|
| Airport | Salt Lake City International Airport (KSLC) |
| Time | Latitude | Longitude | Altitude | Speed | Heading |
|---|---|---|---|---|---|
| 2026-04-30 13:18 | 41.97795 | -87.89334 | 669 ft | 0 kts | 128° |
| 2026-04-30 13:25 | 41.97799 | -87.89341 | 669 ft | 2 kts | 126° |
| 2026-04-30 13:26 | 41.97824 | -87.89398 | 665 ft | 2 kts | 103° |
| 2026-04-30 13:26 | 41.97814 | -87.89431 | 668 ft | 1 kts | 11° |
| 2026-04-30 13:27 | 41.97811 | -87.89432 | 668 ft | 0 kts | 7° |
| 2026-04-30 13:29 | 41.97861 | -87.89427 | 669 ft | 15 kts | 2° |
| 2026-04-30 13:30 | 41.98042 | -87.89201 | 667 ft | 10 kts | 48° |
| 2026-04-30 13:31 | 41.98122 | -87.89079 | 669 ft | 7 kts | 49° |
| 2026-04-30 13:31 | 41.98170 | -87.88997 | 666 ft | 0 kts | 48° |
| 2026-04-30 13:32 | 41.98236 | -87.88931 | 667 ft | 14 kts | 22° |
| 2026-04-30 13:33 | 41.98391 | -87.88937 | 666 ft | 12 kts | 294° |
| 2026-04-30 13:33 | 41.98389 | -87.89043 | 668 ft | 0 kts | 267° |
| 2026-04-30 13:34 | 41.98389 | -87.89334 | 669 ft | 69 kts | 271° |
| 2026-04-30 13:34 | 41.98386 | -87.93401 | 1095 ft | 190 kts | 270° |
| 2026-04-30 13:35 | 41.98387 | -87.95197 | 1835 ft | 189 kts | 270° |
| 2026-04-30 13:35 | 41.98786 | -87.98781 | 2903 ft | 215 kts | 286° |
| 2026-04-30 13:36 | 41.99789 | -88.03073 | 3779 ft | 258 kts | 287° |
| 2026-04-30 13:36 | 42.00332 | -88.05398 | 4584 ft | 264 kts | 287° |
| 2026-04-30 13:36 | 42.01416 | -88.10200 | 6313 ft | 271 kts | 286° |
| 2026-04-30 13:37 | 42.01947 | -88.12629 | 7142 ft | 275 kts | 286° |
| 2026-04-30 13:37 | 42.03020 | -88.17632 | 8789 ft | 282 kts | 286° |
| 2026-04-30 13:38 | 42.04113 | -88.22755 | 10282 ft | 293 kts | 286° |
| 2026-04-30 13:38 | 42.04699 | -88.25508 | 10537 ft | 316 kts | 285° |
| 2026-04-30 13:38 | 42.05967 | -88.31479 | 11519 ft | 341 kts | 286° |
| 2026-04-30 13:39 | 42.07278 | -88.37677 | 12909 ft | 348 kts | 285° |
| 2026-04-30 13:39 | 42.08620 | -88.43998 | 14221 ft | 355 kts | 286° |
| 2026-04-30 13:40 | 42.09298 | -88.47200 | 14846 ft | 359 kts | 285° |
| 2026-04-30 13:40 | 42.09987 | -88.50462 | 15484 ft | 362 kts | 285° |
| 2026-04-30 13:40 | 42.10675 | -88.53728 | 16105 ft | 366 kts | 285° |
| 2026-04-30 13:40 | 42.11375 | -88.57061 | 16700 ft | 369 kts | 285° |
| 2026-04-30 13:41 | 42.12070 | -88.60380 | 17274 ft | 372 kts | 285° |
| 2026-04-30 13:41 | 42.12774 | -88.63743 | 17838 ft | 375 kts | 285° |
| 2026-04-30 13:41 | 42.13486 | -88.67157 | 18393 ft | 379 kts | 285° |
| 2026-04-30 13:41 | 42.14197 | -88.70571 | 18930 ft | 382 kts | 285° |
| 2026-04-30 13:42 | 42.14919 | -88.74043 | 19459 ft | 385 kts | 285° |
| 2026-04-30 13:42 | 42.15638 | -88.77512 | 19972 ft | 388 kts | 285° |
| 2026-04-30 13:42 | 42.16247 | -88.84763 | 20934 ft | 393 kts | 268° |
| 2026-04-30 13:43 | 42.16151 | -88.88435 | 21403 ft | 396 kts | 268° |
| 2026-04-30 13:43 | 42.16057 | -88.92173 | 21875 ft | 399 kts | 268° |
| 2026-04-30 13:43 | 42.15966 | -88.95905 | 22323 ft | 401 kts | 268° |
| 2026-04-30 13:43 | 42.15873 | -88.99652 | 22756 ft | 404 kts | 268° |
| 2026-04-30 13:44 | 42.15776 | -89.03484 | 23190 ft | 407 kts | 268° |
| 2026-04-30 13:44 | 42.15678 | -89.07280 | 23600 ft | 409 kts | 268° |
| 2026-04-30 13:44 | 42.15579 | -89.11109 | 24008 ft | 412 kts | 268° |
| 2026-04-30 13:44 | 42.15479 | -89.14969 | 24405 ft | 414 kts | 268° |
| 2026-04-30 13:45 | 42.15269 | -89.22786 | 25164 ft | 419 kts | 268° |
| 2026-04-30 13:45 | 42.15161 | -89.26750 | 25532 ft | 422 kts | 268° |
| 2026-04-30 13:45 | 42.15054 | -89.30693 | 25888 ft | 424 kts | 268° |
| 2026-04-30 13:46 | 42.14945 | -89.34656 | 26241 ft | 426 kts | 268° |
| 2026-04-30 13:46 | 42.14833 | -89.38650 | 26582 ft | 429 kts | 268° |
| 2026-04-30 13:46 | 42.14718 | -89.42692 | 26922 ft | 431 kts | 268° |
| 2026-04-30 13:46 | 42.14599 | -89.46754 | 27257 ft | 433 kts | 268° |
| 2026-04-30 13:47 | 42.14480 | -89.50792 | 27582 ft | 435 kts | 268° |
| 2026-04-30 13:47 | 42.14358 | -89.54858 | 27921 ft | 437 kts | 268° |
| 2026-04-30 13:47 | 42.14233 | -89.58982 | 28216 ft | 440 kts | 268° |
| 2026-04-30 13:47 | 42.14108 | -89.63081 | 28510 ft | 442 kts | 268° |
| 2026-04-30 13:48 | 42.13982 | -89.67255 | 28821 ft | 444 kts | 268° |
| 2026-04-30 13:48 | 42.13858 | -89.71392 | 29104 ft | 446 kts | 268° |
| 2026-04-30 13:48 | 42.13729 | -89.75593 | 29382 ft | 448 kts | 268° |
| 2026-04-30 13:48 | 42.13595 | -89.79821 | 29653 ft | 450 kts | 268° |
| 2026-04-30 13:49 | 42.13461 | -89.84000 | 29904 ft | 451 kts | 267° |
| 2026-04-30 13:49 | 42.13183 | -89.92477 | 30019 ft | 452 kts | 267° |
| 2026-04-30 13:50 | 42.12907 | -90.00928 | 30005 ft | 451 kts | 267° |
| 2026-04-30 13:50 | 42.12467 | -90.13594 | 30011 ft | 451 kts | 267° |
| 2026-04-30 13:51 | 42.12162 | -90.22023 | 30010 ft | 451 kts | 267° |
| 2026-04-30 13:51 | 42.11866 | -90.30405 | 30005 ft | 451 kts | 267° |
| 2026-04-30 13:52 | 42.11559 | -90.38861 | 30010 ft | 451 kts | 267° |
| 2026-04-30 13:52 | 42.11242 | -90.47285 | 30018 ft | 451 kts | 267° |
| 2026-04-30 13:53 | 42.10913 | -90.55715 | 30005 ft | 451 kts | 267° |
| 2026-04-30 13:53 | 42.10585 | -90.64139 | 30005 ft | 451 kts | 267° |
| 2026-04-30 13:54 | 42.10254 | -90.72552 | 30005 ft | 451 kts | 267° |
| 2026-04-30 13:54 | 42.09913 | -90.80981 | 30005 ft | 451 kts | 267° |
| 2026-04-30 13:55 | 42.09561 | -90.89429 | 30005 ft | 451 kts | 266° |
| 2026-04-30 13:55 | 42.09206 | -90.97830 | 30012 ft | 451 kts | 266° |
| 2026-04-30 13:56 | 42.08854 | -91.06234 | 30005 ft | 451 kts | 266° |
| 2026-04-30 13:56 | 42.08498 | -91.14658 | 30011 ft | 451 kts | 266° |
| 2026-04-30 13:57 | 42.08128 | -91.23105 | 30017 ft | 451 kts | 266° |
| 2026-04-30 13:57 | 42.07811 | -91.31533 | 30004 ft | 451 kts | 269° |
| 2026-04-30 13:58 | 42.08014 | -91.44202 | 30014 ft | 451 kts | 272° |
| 2026-04-30 13:59 | 42.08213 | -91.52630 | 30010 ft | 451 kts | 271° |
| 2026-04-30 13:59 | 42.08318 | -91.61056 | 30013 ft | 451 kts | 270° |
| 2026-04-30 14:00 | 42.08375 | -91.69482 | 30012 ft | 451 kts | 270° |
| 2026-04-30 14:00 | 42.08473 | -91.82132 | 30011 ft | 451 kts | 270° |
| 2026-04-30 14:01 | 42.08547 | -91.90553 | 30008 ft | 450 kts | 270° |
| 2026-04-30 14:01 | 42.08613 | -91.98996 | 30006 ft | 451 kts | 270° |
| 2026-04-30 14:02 | 42.08670 | -92.07437 | 30006 ft | 451 kts | 270° |
| 2026-04-30 14:02 | 42.08721 | -92.15852 | 30019 ft | 450 kts | 270° |
| 2026-04-30 14:03 | 42.08760 | -92.24271 | 30007 ft | 451 kts | 270° |
| 2026-04-30 14:03 | 42.08793 | -92.32700 | 30020 ft | 451 kts | 270° |
| 2026-04-30 14:04 | 42.08828 | -92.41126 | 30007 ft | 451 kts | 270° |
| 2026-04-30 14:04 | 42.08853 | -92.49611 | 30008 ft | 451 kts | 270° |
| 2026-04-30 14:05 | 42.08868 | -92.57989 | 30015 ft | 451 kts | 270° |
| 2026-04-30 14:05 | 42.08883 | -92.66468 | 30005 ft | 451 kts | 270° |
| 2026-04-30 14:06 | 42.08889 | -92.79065 | 30009 ft | 451 kts | 270° |
| 2026-04-30 14:07 | 42.08875 | -92.91737 | 30002 ft | 450 kts | 270° |
| 2026-04-30 14:08 | 42.08857 | -93.04360 | 30007 ft | 450 kts | 270° |
| 2026-04-30 14:08 | 42.08830 | -93.17025 | 30003 ft | 450 kts | 270° |
| 2026-04-30 14:09 | 42.08799 | -93.25477 | 30009 ft | 451 kts | 270° |
| 2026-04-30 14:10 | 42.08743 | -93.38091 | 30006 ft | 451 kts | 270° |
| 2026-04-30 14:10 | 42.08693 | -93.46510 | 30007 ft | 450 kts | 269° |
| 2026-04-30 14:11 | 42.08874 | -93.54943 | 30007 ft | 450 kts | 277° |
| 2026-04-30 14:11 | 42.09686 | -93.63295 | 30004 ft | 450 kts | 277° |
| 2026-04-30 14:12 | 42.10493 | -93.71613 | 30022 ft | 450 kts | 277° |
| 2026-04-30 14:12 | 42.11300 | -93.80016 | 30018 ft | 450 kts | 277° |
| 2026-04-30 14:13 | 42.12088 | -93.88367 | 30004 ft | 450 kts | 277° |
| 2026-04-30 14:13 | 42.12872 | -93.96724 | 30012 ft | 450 kts | 277° |
| 2026-04-30 14:14 | 42.13656 | -94.05098 | 30004 ft | 450 kts | 277° |
| 2026-04-30 14:14 | 42.14429 | -94.13461 | 30005 ft | 450 kts | 277° |
| 2026-04-30 14:15 | 42.15185 | -94.21805 | 30005 ft | 450 kts | 277° |
| 2026-04-30 14:15 | 42.15940 | -94.30218 | 30004 ft | 450 kts | 277° |
| 2026-04-30 14:16 | 42.16698 | -94.38587 | 30005 ft | 450 kts | 277° |
| 2026-04-30 14:16 | 42.17447 | -94.46960 | 30015 ft | 450 kts | 277° |
| 2026-04-30 14:17 | 42.18189 | -94.55327 | 30005 ft | 450 kts | 277° |
| 2026-04-30 14:17 | 42.18925 | -94.63705 | 30004 ft | 450 kts | 276° |
| 2026-04-30 14:18 | 42.19652 | -94.72101 | 30018 ft | 450 kts | 276° |
| 2026-04-30 14:18 | 42.20739 | -94.84666 | 30005 ft | 450 kts | 276° |
| 2026-04-30 14:19 | 42.21806 | -94.97210 | 30008 ft | 450 kts | 276° |
| 2026-04-30 14:20 | 42.22506 | -95.05613 | 30005 ft | 450 kts | 276° |
| 2026-04-30 14:20 | 42.23549 | -95.18193 | 30009 ft | 450 kts | 276° |
| 2026-04-30 14:21 | 42.24245 | -95.26611 | 30020 ft | 450 kts | 276° |
| 2026-04-30 14:22 | 42.25272 | -95.39198 | 30004 ft | 451 kts | 276° |
| 2026-04-30 14:22 | 42.26281 | -95.51850 | 30012 ft | 450 kts | 276° |
| 2026-04-30 14:23 | 42.27613 | -95.68611 | 30012 ft | 450 kts | 276° |
| 2026-04-30 14:24 | 42.28593 | -95.81251 | 30012 ft | 450 kts | 276° |
| 2026-04-30 14:25 | 42.29857 | -95.98031 | 30010 ft | 450 kts | 276° |
| 2026-04-30 14:26 | 42.30700 | -96.09238 | 30005 ft | 450 kts | 276° |
| 2026-04-30 14:27 | 42.31632 | -96.21828 | 30005 ft | 450 kts | 275° |
| 2026-04-30 14:27 | 42.32238 | -96.30244 | 30005 ft | 450 kts | 275° |
| 2026-04-30 14:28 | 42.33153 | -96.42840 | 30005 ft | 449 kts | 275° |
| 2026-04-30 14:28 | 42.33757 | -96.51260 | 30005 ft | 450 kts | 275° |
| 2026-04-30 14:29 | 42.34935 | -96.68099 | 30012 ft | 450 kts | 275° |
| 2026-04-30 14:31 | 42.36364 | -96.89125 | 30019 ft | 450 kts | 275° |
| 2026-04-30 14:31 | 42.37222 | -97.01812 | 30010 ft | 450 kts | 275° |
| 2026-04-30 14:32 | 42.38049 | -97.14415 | 30005 ft | 450 kts | 275° |
| 2026-04-30 14:33 | 42.38591 | -97.22844 | 30016 ft | 451 kts | 275° |
| 2026-04-30 14:33 | 42.39396 | -97.35521 | 30012 ft | 450 kts | 275° |
| 2026-04-30 14:34 | 42.39931 | -97.43983 | 30005 ft | 450 kts | 275° |
| 2026-04-30 14:34 | 42.40457 | -97.52382 | 30011 ft | 450 kts | 275° |
| 2026-04-30 14:35 | 42.41233 | -97.65059 | 30020 ft | 451 kts | 275° |
| 2026-04-30 14:36 | 42.41741 | -97.73507 | 30005 ft | 450 kts | 275° |
| 2026-04-30 14:36 | 42.42243 | -97.81953 | 30009 ft | 451 kts | 274° |
| 2026-04-30 14:37 | 42.42737 | -97.90409 | 30005 ft | 450 kts | 274° |
| 2026-04-30 14:37 | 42.43226 | -97.98879 | 30005 ft | 450 kts | 274° |
| 2026-04-30 14:38 | 42.43711 | -98.07275 | 30017 ft | 450 kts | 274° |
| 2026-04-30 14:38 | 42.44196 | -98.15741 | 30005 ft | 450 kts | 274° |
| 2026-04-30 14:39 | 42.44671 | -98.24201 | 30005 ft | 450 kts | 274° |
| 2026-04-30 14:39 | 42.45131 | -98.32651 | 30014 ft | 451 kts | 274° |
| 2026-04-30 14:40 | 42.45818 | -98.45318 | 30006 ft | 451 kts | 274° |
| 2026-04-30 14:40 | 42.46277 | -98.53783 | 30005 ft | 451 kts | 274° |
| 2026-04-30 14:41 | 42.46722 | -98.62267 | 30005 ft | 451 kts | 274° |
| 2026-04-30 14:41 | 42.46994 | -98.70735 | 30017 ft | 451 kts | 267° |
| 2026-04-30 14:42 | 42.46704 | -98.79219 | 30015 ft | 451 kts | 267° |
| 2026-04-30 14:42 | 42.46412 | -98.87705 | 30006 ft | 451 kts | 267° |
| 2026-04-30 14:43 | 42.46116 | -98.96140 | 30007 ft | 451 kts | 267° |
| 2026-04-30 14:43 | 42.45808 | -99.04663 | 30019 ft | 451 kts | 267° |
| 2026-04-30 14:44 | 42.45505 | -99.13139 | 30017 ft | 451 kts | 267° |
| 2026-04-30 14:44 | 42.45196 | -99.21615 | 30012 ft | 451 kts | 267° |
| 2026-04-30 14:45 | 42.44880 | -99.30054 | 30006 ft | 451 kts | 267° |
| 2026-04-30 14:45 | 42.44558 | -99.38528 | 30006 ft | 451 kts | 267° |
| 2026-04-30 14:46 | 42.44224 | -99.47028 | 30006 ft | 451 kts | 267° |
| 2026-04-30 14:46 | 42.43882 | -99.55518 | 30006 ft | 451 kts | 266° |
| 2026-04-30 14:47 | 42.43533 | -99.64005 | 30012 ft | 452 kts | 266° |
| 2026-04-30 14:47 | 42.43183 | -99.72483 | 30006 ft | 452 kts | 266° |
| 2026-04-30 14:48 | 42.42826 | -99.80971 | 30005 ft | 452 kts | 266° |
| 2026-04-30 14:48 | 42.42461 | -99.89453 | 30013 ft | 452 kts | 266° |
| 2026-04-30 14:49 | 42.42099 | -99.97895 | 30017 ft | 452 kts | 266° |
| 2026-04-30 14:49 | 42.41728 | -100.06380 | 30005 ft | 452 kts | 266° |
| 2026-04-30 14:50 | 42.41145 | -100.19138 | 30006 ft | 452 kts | 266° |
| 2026-04-30 14:51 | 42.40549 | -100.31830 | 30006 ft | 452 kts | 266° |
| 2026-04-30 14:52 | 42.39952 | -100.44587 | 30006 ft | 452 kts | 266° |
| 2026-04-30 14:52 | 42.39339 | -100.57299 | 30005 ft | 452 kts | 266° |
| 2026-04-30 14:53 | 42.38706 | -100.70009 | 30006 ft | 452 kts | 266° |
| 2026-04-30 14:54 | 42.37830 | -100.86971 | 30005 ft | 452 kts | 266° |
| 2026-04-30 14:55 | 42.37162 | -100.99723 | 30006 ft | 452 kts | 266° |
| 2026-04-30 14:56 | 42.36260 | -101.16678 | 30006 ft | 453 kts | 266° |
| 2026-04-30 14:57 | 42.35558 | -101.29406 | 30019 ft | 453 kts | 265° |
| 2026-04-30 14:58 | 42.34600 | -101.46367 | 30006 ft | 453 kts | 265° |
| 2026-04-30 14:58 | 42.33865 | -101.59077 | 30006 ft | 453 kts | 265° |
| 2026-04-30 15:00 | 42.32615 | -101.80291 | 30015 ft | 453 kts | 265° |
| 2026-04-30 15:01 | 42.31574 | -101.97308 | 30005 ft | 453 kts | 265° |
| 2026-04-30 15:01 | 42.30795 | -102.10012 | 30005 ft | 454 kts | 265° |
| 2026-04-30 15:02 | 42.30263 | -102.18474 | 30005 ft | 454 kts | 265° |
| 2026-04-30 15:03 | 42.28892 | -102.39712 | 30022 ft | 454 kts | 265° |
| 2026-04-30 15:04 | 42.27496 | -102.60868 | 30016 ft | 453 kts | 265° |
| 2026-04-30 15:06 | 42.26042 | -102.82082 | 30021 ft | 453 kts | 264° |
| 2026-04-30 15:07 | 42.24877 | -102.98978 | 30006 ft | 454 kts | 264° |
| 2026-04-30 15:08 | 42.23669 | -103.15949 | 30018 ft | 454 kts | 264° |
| 2026-04-30 15:09 | 42.22114 | -103.37144 | 30010 ft | 454 kts | 264° |
| 2026-04-30 15:10 | 42.20858 | -103.54083 | 30018 ft | 454 kts | 264° |
| 2026-04-30 15:11 | 42.18919 | -103.79504 | 30005 ft | 455 kts | 264° |
| 2026-04-30 15:13 | 42.17249 | -104.00636 | 30006 ft | 454 kts | 264° |
| 2026-04-30 15:14 | 42.14856 | -104.30270 | 30005 ft | 454 kts | 263° |
| 2026-04-30 15:17 | 42.11687 | -104.68225 | 30020 ft | 454 kts | 263° |
| 2026-04-30 15:19 | 42.08746 | -105.01983 | 30006 ft | 454 kts | 263° |